createdAt,value
2018-11-07T00:02:19.958Z,99.90
2018-11-07T00:04:52.499Z,99.90
2018-11-07T00:07:22.603Z,99.90
2018-11-07T00:09:52.675Z,99.90
2018-11-07T00:12:22.887Z,99.90
2018-11-07T00:14:52.954Z,99.90
2018-11-07T00:17:22.938Z,99.90
2018-11-07T00:19:52.890Z,99.90
2018-11-07T00:22:22.966Z,99.90
2018-11-07T00:24:52.981Z,99.90
2018-11-07T00:27:23.031Z,99.90
2018-11-07T00:29:53.097Z,99.90
2018-11-07T00:32:23.071Z,99.90
2018-11-07T00:34:53.155Z,99.90
2018-11-07T00:37:23.179Z,99.90
2018-11-07T00:39:53.173Z,99.90
2018-11-07T00:42:23.310Z,99.90
2018-11-07T00:44:53.294Z,99.90
2018-11-07T00:47:23.341Z,99.90
2018-11-07T00:49:53.360Z,99.90
2018-11-07T00:52:23.298Z,99.90
2018-11-07T00:54:53.397Z,99.90
2018-11-07T00:57:23.454Z,99.90
2018-11-07T00:59:53.527Z,99.90
2018-11-07T01:02:23.529Z,99.90
2018-11-07T01:04:53.580Z,99.90
2018-11-07T01:07:23.510Z,99.90
2018-11-07T01:09:53.550Z,99.90
2018-11-07T01:12:23.536Z,99.90
2018-11-07T01:14:53.524Z,99.90
2018-11-07T01:17:23.659Z,99.90
2018-11-07T01:19:53.734Z,99.90
2018-11-07T01:22:23.777Z,99.90
2018-11-07T01:24:53.823Z,99.90
2018-11-07T01:27:23.890Z,99.90
2018-11-07T01:29:53.956Z,99.90
2018-11-07T01:32:23.905Z,99.90
2018-11-07T01:34:53.933Z,99.90
2018-11-07T01:37:23.951Z,99.90
2018-11-07T01:39:53.801Z,99.90
2018-11-07T01:42:23.732Z,99.90
2018-11-07T01:44:53.709Z,99.90
2018-11-07T01:47:23.716Z,99.90
2018-11-07T01:49:53.712Z,99.90
2018-11-07T01:52:25.232Z,99.90
2018-11-07T01:54:55.359Z,99.90
2018-11-07T01:57:25.432Z,99.90
2018-11-07T01:59:55.401Z,99.90
2018-11-07T02:02:25.549Z,99.90
2018-11-07T02:04:55.529Z,99.90
2018-11-07T02:07:25.718Z,99.90
2018-11-07T02:09:55.753Z,99.90
2018-11-07T02:12:25.841Z,99.90
2018-11-07T02:14:56.552Z,99.90
2018-11-07T02:17:26.593Z,99.90
2018-11-07T02:19:56.639Z,99.90
2018-11-07T02:22:26.630Z,99.90
2018-11-07T02:24:57.386Z,99.90
2018-11-07T02:27:27.464Z,99.90
2018-11-07T02:29:57.511Z,99.90
2018-11-07T02:32:27.468Z,99.90
2018-11-07T02:34:57.562Z,99.90
2018-11-07T02:37:27.646Z,99.90
2018-11-07T02:39:57.648Z,99.90
2018-11-07T02:42:28.680Z,99.90
2018-11-07T02:44:58.684Z,99.90
2018-11-07T02:47:28.745Z,99.90
2018-11-07T02:49:58.763Z,99.90
2018-11-07T02:52:28.924Z,99.90
2018-11-07T02:54:58.947Z,99.90
2018-11-07T02:57:29.640Z,99.90
2018-11-07T02:59:59.615Z,99.90
2018-11-07T03:02:29.650Z,99.90
2018-11-07T03:04:59.680Z,99.90
2018-11-07T03:07:29.669Z,99.90
2018-11-07T03:09:59.760Z,99.90
2018-11-07T03:12:29.731Z,99.90
2018-11-07T03:14:59.734Z,99.90
2018-11-07T03:17:29.728Z,99.90
2018-11-07T03:19:59.718Z,99.90
2018-11-07T03:22:29.772Z,99.90
2018-11-07T03:24:59.770Z,99.90
2018-11-07T03:27:29.828Z,99.90
2018-11-07T03:29:59.875Z,99.90
2018-11-07T03:32:29.852Z,99.90
2018-11-07T03:34:59.870Z,99.90
2018-11-07T03:37:29.990Z,99.90
2018-11-07T03:40:00.064Z,99.90
2018-11-07T03:42:30.155Z,99.90
2018-11-07T03:45:00.127Z,99.90
2018-11-07T03:47:30.145Z,99.90
2018-11-07T03:50:00.195Z,99.90
2018-11-07T03:52:30.199Z,99.90
2018-11-07T03:55:00.354Z,99.90
2018-11-07T03:57:30.309Z,99.90
2018-11-07T04:00:00.288Z,99.90
2018-11-07T04:02:30.393Z,99.90
2018-11-07T04:05:00.344Z,99.90
2018-11-07T04:07:30.366Z,99.90
2018-11-07T04:10:00.372Z,99.90
2018-11-07T04:12:30.531Z,99.90
2018-11-07T04:15:00.550Z,99.90
2018-11-07T04:17:30.608Z,99.90
2018-11-07T04:20:00.627Z,99.90
2018-11-07T04:22:30.752Z,99.90
2018-11-07T04:25:00.725Z,99.90
2018-11-07T04:27:30.883Z,99.90
2018-11-07T04:30:03.043Z,99.90
2018-11-07T04:32:33.705Z,99.90
2018-11-07T04:35:04.020Z,99.90
2018-11-07T04:37:36.598Z,99.90
2018-11-07T04:40:09.276Z,99.90
2018-11-07T04:42:39.340Z,99.90
2018-11-07T04:45:09.448Z,99.90
2018-11-07T04:47:39.418Z,99.90
2018-11-07T04:50:10.747Z,99.90
2018-11-07T04:52:40.772Z,99.90
2018-11-07T04:55:10.907Z,99.90
2018-11-07T04:57:41.017Z,99.90
2018-11-07T05:00:12.296Z,99.90
2018-11-07T05:02:42.978Z,99.90
2018-11-07T05:05:13.100Z,99.90
2018-11-07T05:07:43.127Z,99.90
2018-11-07T05:10:13.329Z,99.90
2018-11-07T05:12:43.424Z,99.90
2018-11-07T05:15:13.584Z,99.90
2018-11-07T05:17:43.657Z,99.90
2018-11-07T05:20:13.764Z,99.90
2018-11-07T05:22:43.810Z,99.90
2018-11-07T05:25:13.955Z,99.90
2018-11-07T05:27:44.030Z,99.90
2018-11-07T05:30:14.051Z,99.90
2018-11-07T05:32:44.216Z,99.90
2018-11-07T05:35:16.666Z,99.90
2018-11-07T05:37:46.953Z,99.90
2018-11-07T05:40:18.179Z,99.90
2018-11-07T05:42:58.256Z,99.90
2018-11-07T05:45:30.285Z,99.90
2018-11-07T05:48:02.665Z,99.90
2018-11-07T05:50:32.701Z,99.90
2018-11-07T05:53:03.108Z,99.90
2018-11-07T05:55:34.470Z,99.90
2018-11-07T05:58:04.615Z,99.90
2018-11-07T06:00:34.730Z,99.90
2018-11-07T06:03:09.158Z,99.90
2018-11-07T06:05:39.223Z,99.90
2018-11-07T06:08:09.317Z,99.90
2018-11-07T06:10:39.431Z,99.90
2018-11-07T06:13:09.497Z,99.90
2018-11-07T06:15:42.171Z,99.90
2018-11-07T06:18:27.321Z,99.90
2018-11-07T06:20:58.048Z,99.90
2018-11-07T06:23:28.480Z,99.90
2018-11-07T06:26:04.544Z,99.90
2018-11-07T06:28:35.608Z,99.90
2018-11-07T06:31:17.569Z,99.90
2018-11-07T06:33:47.695Z,99.90
2018-11-07T06:36:17.746Z,99.90
2018-11-07T06:38:55.914Z,99.90
2018-11-07T06:41:25.992Z,99.90
2018-11-07T06:43:56.048Z,99.90
2018-11-07T06:46:26.169Z,99.90
2018-11-07T06:48:56.302Z,99.90
2018-11-07T06:51:26.365Z,99.90
2018-11-07T06:53:56.408Z,99.90
2018-11-07T06:56:26.455Z,99.90
2018-11-07T06:58:56.557Z,99.90
2018-11-07T07:01:26.668Z,99.90
2018-11-07T07:03:56.634Z,99.90
2018-11-07T07:06:26.690Z,99.90
2018-11-07T07:08:56.723Z,99.90
2018-11-07T07:11:39.709Z,99.90
2018-11-07T07:14:09.626Z,99.90
2018-11-07T07:16:39.702Z,99.90
2018-11-07T07:19:09.731Z,99.90
2018-11-07T07:21:40.675Z,99.90
2018-11-07T07:24:10.805Z,99.90
2018-11-07T07:26:40.846Z,99.90
2018-11-07T07:29:10.845Z,99.90
2018-11-07T07:31:40.977Z,99.90
2018-11-07T07:34:11.085Z,99.90
2018-11-07T07:36:41.136Z,99.90
2018-11-07T07:39:11.146Z,99.90
2018-11-07T07:41:41.133Z,99.90
2018-11-07T07:44:11.285Z,99.90
2018-11-07T07:46:41.305Z,99.90
2018-11-07T07:49:11.366Z,99.90
2018-11-07T07:51:41.275Z,99.90
2018-11-07T07:54:11.307Z,99.90
2018-11-07T07:56:41.440Z,99.90
2018-11-07T07:59:11.435Z,99.90
2018-11-07T08:01:41.482Z,99.90
2018-11-07T08:04:11.617Z,99.90
2018-11-07T08:06:41.718Z,99.90
2018-11-07T08:09:13.265Z,99.90
2018-11-07T08:11:43.308Z,99.90
2018-11-07T08:14:13.321Z,99.90
2018-11-07T08:16:43.247Z,99.90
2018-11-07T08:19:13.245Z,99.90
2018-11-07T08:21:43.244Z,99.90
2018-11-07T08:24:13.266Z,99.90
2018-11-07T08:26:43.392Z,99.90
2018-11-07T08:29:13.450Z,99.90
2018-11-07T08:31:43.546Z,99.90
2018-11-07T08:34:13.612Z,99.90
2018-11-07T08:36:43.631Z,99.90
2018-11-07T08:39:13.683Z,99.90
2018-11-07T08:41:43.668Z,99.90
2018-11-07T08:44:13.783Z,99.90
2018-11-07T08:46:43.867Z,99.90
2018-11-07T08:49:13.915Z,99.90
2018-11-07T08:51:43.980Z,99.90
2018-11-07T08:54:14.090Z,99.90
2018-11-07T08:56:44.159Z,99.90
2018-11-07T08:59:14.124Z,99.90
2018-11-07T09:01:44.182Z,99.90
2018-11-07T09:04:14.264Z,99.90
2018-11-07T09:06:44.363Z,99.90
2018-11-07T09:09:14.435Z,99.90
2018-11-07T09:11:44.574Z,99.90
2018-11-07T09:14:14.589Z,99.90
2018-11-07T09:16:44.598Z,99.90
2018-11-07T09:19:15.354Z,99.90
2018-11-07T09:21:45.386Z,99.90
2018-11-07T09:24:15.428Z,99.90
2018-11-07T09:26:45.468Z,99.90
2018-11-07T09:29:15.668Z,99.90
2018-11-07T09:31:45.652Z,99.90
2018-11-07T09:34:15.754Z,99.90
2018-11-07T09:36:45.839Z,99.90
2018-11-07T09:39:16.038Z,99.90
2018-11-07T09:41:46.092Z,99.90
2018-11-07T09:44:16.105Z,99.90
2018-11-07T09:46:46.145Z,99.90
2018-11-07T09:49:16.156Z,99.90
2018-11-07T09:51:46.819Z,99.90
2018-11-07T09:54:16.828Z,99.90
2018-11-07T09:56:46.816Z,99.90
2018-11-07T09:59:16.799Z,99.90
2018-11-07T10:01:46.813Z,99.90
2018-11-07T10:04:16.830Z,99.90
2018-11-07T10:06:46.827Z,99.90
2018-11-07T10:09:16.918Z,99.90
2018-11-07T10:11:46.945Z,99.90
2018-11-07T10:14:16.976Z,99.90
2018-11-07T10:16:47.075Z,99.90
2018-11-07T10:19:17.129Z,99.90
2018-11-07T10:21:47.201Z,99.90
2018-11-07T10:24:17.200Z,99.90
2018-11-07T10:26:47.260Z,99.90
2018-11-07T10:29:17.594Z,99.90
2018-11-07T10:31:47.332Z,99.90
2018-11-07T10:34:17.498Z,99.90
2018-11-07T10:36:47.640Z,99.90
2018-11-07T10:39:17.669Z,99.80
2018-11-07T10:41:47.631Z,99.90
2018-11-07T10:44:17.796Z,99.90
2018-11-07T10:46:47.856Z,99.90
2018-11-07T10:49:17.853Z,99.40
2018-11-07T10:51:47.895Z,98.40
2018-11-07T10:54:17.935Z,96.00
2018-11-07T10:56:47.921Z,93.70
2018-11-07T10:59:18.022Z,92.60
2018-11-07T11:01:52.995Z,92.20
2018-11-07T11:04:22.960Z,91.50
2018-11-07T11:06:55.514Z,92.10
2018-11-07T11:09:25.469Z,93.20
2018-11-07T11:11:56.189Z,92.30
2018-11-07T11:14:26.247Z,91.90
2018-11-07T11:16:56.366Z,91.10
2018-11-07T11:19:26.335Z,90.70
2018-11-07T11:21:56.253Z,90.10
2018-11-07T11:24:26.267Z,90.00
2018-11-07T11:26:56.295Z,90.20
2018-11-07T11:29:26.261Z,90.10
2018-11-07T11:31:56.351Z,90.80
2018-11-07T11:34:26.450Z,91.30
2018-11-07T11:36:56.285Z,91.40
2018-11-07T11:39:26.255Z,91.40
2018-11-07T11:41:56.311Z,90.60
2018-11-07T11:44:26.366Z,90.50
2018-11-07T11:46:56.467Z,90.50
2018-11-07T11:49:26.418Z,87.90
2018-11-07T11:51:56.511Z,86.90
2018-11-07T11:54:26.569Z,87.50
2018-11-07T11:56:56.529Z,87.00
2018-11-07T11:59:26.621Z,84.90
2018-11-07T12:01:56.622Z,84.60
2018-11-07T12:04:26.703Z,84.60
2018-11-07T12:06:56.659Z,84.70
2018-11-07T12:09:26.772Z,84.20
2018-11-07T12:11:57.359Z,84.50
2018-11-07T12:14:27.470Z,84.50
2018-11-07T12:16:57.525Z,86.40
2018-11-07T12:19:27.481Z,86.00
2018-11-07T12:21:57.483Z,82.90
2018-11-07T12:24:27.506Z,83.20
2018-11-07T12:26:57.500Z,79.80
2018-11-07T12:29:27.480Z,77.60
2018-11-07T12:31:57.596Z,74.00
2018-11-07T12:34:27.627Z,73.30
2018-11-07T12:36:57.709Z,71.30
2018-11-07T12:39:27.649Z,73.00
2018-11-07T12:41:57.633Z,72.30
2018-11-07T12:44:27.680Z,71.80
2018-11-07T12:46:57.751Z,71.70
2018-11-07T12:49:27.820Z,73.10
2018-11-07T12:51:58.054Z,73.30
2018-11-07T12:54:28.015Z,75.30
2018-11-07T12:56:58.094Z,75.70
2018-11-07T12:59:28.070Z,78.00
2018-11-07T13:01:58.077Z,80.00
2018-11-07T13:04:28.161Z,79.40
2018-11-07T13:06:58.165Z,79.80
2018-11-07T13:09:28.131Z,81.20
2018-11-07T13:11:58.221Z,80.30
2018-11-07T13:14:28.275Z,80.50
2018-11-07T13:16:58.790Z,80.10
2018-11-07T13:19:28.861Z,80.40
2018-11-07T13:21:58.761Z,83.20
2018-11-07T13:24:28.846Z,80.00
2018-11-07T13:26:58.990Z,79.00
2018-11-07T13:29:28.970Z,82.20
2018-11-07T13:31:58.903Z,83.30
2018-11-07T13:34:28.928Z,84.70
2018-11-07T13:36:59.021Z,85.90
2018-11-07T13:39:29.024Z,88.70
2018-11-07T13:41:58.987Z,90.70
2018-11-07T13:44:29.031Z,91.80
2018-11-07T13:46:59.106Z,92.30
2018-11-07T13:49:29.197Z,92.90
2018-11-07T13:51:59.264Z,94.50
2018-11-07T13:54:29.327Z,95.10
2018-11-07T13:56:59.443Z,96.60
2018-11-07T13:59:29.502Z,99.90
2018-11-07T14:01:59.457Z,99.90
2018-11-07T14:04:29.474Z,99.90
2018-11-07T14:06:59.561Z,99.90
2018-11-07T14:09:29.587Z,99.90
2018-11-07T14:11:59.578Z,99.90
2018-11-07T14:14:29.583Z,99.90
2018-11-07T14:16:59.638Z,99.90
2018-11-07T14:19:29.718Z,99.90
2018-11-07T14:21:59.787Z,99.90
2018-11-07T14:24:29.813Z,99.90
2018-11-07T14:26:59.911Z,99.90
2018-11-07T14:29:29.903Z,99.90
2018-11-07T14:32:00.233Z,99.90
2018-11-07T14:34:30.376Z,99.90
2018-11-07T14:37:00.442Z,99.90
2018-11-07T14:39:30.348Z,99.90
2018-11-07T14:42:00.303Z,99.90
2018-11-07T14:44:30.435Z,99.90
2018-11-07T14:47:00.469Z,99.90
2018-11-07T14:49:30.510Z,99.90
2018-11-07T14:52:00.514Z,99.90
2018-11-07T14:54:30.549Z,99.90
2018-11-07T14:57:00.469Z,99.90
2018-11-07T14:59:30.496Z,99.90
2018-11-07T15:02:00.772Z,99.90
2018-11-07T15:04:31.161Z,99.90
2018-11-07T15:07:01.720Z,99.90
2018-11-07T15:09:32.313Z,99.90
2018-11-07T15:12:02.841Z,99.90
2018-11-07T15:14:33.205Z,99.90
2018-11-07T15:17:03.736Z,99.90
2018-11-07T15:19:34.221Z,99.90
2018-11-07T15:22:04.896Z,99.90
2018-11-07T15:24:35.389Z,99.90
2018-11-07T15:27:06.255Z,99.90
2018-11-07T15:29:36.721Z,99.90
2018-11-07T15:32:07.574Z,99.90
2018-11-07T15:34:37.919Z,99.90
2018-11-07T15:37:08.646Z,99.90
2018-11-07T15:39:39.188Z,99.90
2018-11-07T15:42:09.676Z,99.90
2018-11-07T15:44:40.145Z,99.90
2018-11-07T15:47:10.751Z,99.90
2018-11-07T15:49:42.465Z,99.90
2018-11-07T15:52:13.242Z,99.90
2018-11-07T15:54:43.782Z,99.90
2018-11-07T15:57:14.385Z,99.90
2018-11-07T15:59:45.014Z,99.90
2018-11-07T16:02:15.425Z,99.90
2018-11-07T16:04:45.834Z,99.90
2018-11-07T16:07:16.299Z,99.90
2018-11-07T16:09:46.822Z,99.90
2018-11-07T16:12:17.202Z,99.90
2018-11-07T16:14:47.859Z,99.90
2018-11-07T16:17:18.419Z,99.90
2018-11-07T16:19:48.843Z,99.90
2018-11-07T16:22:20.637Z,99.90
2018-11-07T16:24:51.034Z,99.90
2018-11-07T16:27:21.481Z,99.90
2018-11-07T16:29:51.949Z,99.90
2018-11-07T16:32:22.511Z,99.90
2018-11-07T16:34:53.582Z,99.90
2018-11-07T16:37:24.465Z,99.90
2018-11-07T16:39:55.083Z,99.90
2018-11-07T16:42:25.547Z,99.90
2018-11-07T16:44:56.184Z,99.90
2018-11-07T16:47:26.768Z,99.90
2018-11-07T16:49:57.417Z,99.90
2018-11-07T16:52:28.174Z,99.90
2018-11-07T16:54:58.892Z,99.90
2018-11-07T16:57:30.041Z,99.90
2018-11-07T17:00:00.837Z,99.90
2018-11-07T17:02:31.522Z,99.90
2018-11-07T17:05:02.079Z,99.90
2018-11-07T17:07:33.376Z,99.90
2018-11-07T17:10:04.051Z,99.90
2018-11-07T17:12:35.068Z,99.90
2018-11-07T17:15:05.959Z,99.90
2018-11-07T17:17:36.726Z,99.90
2018-11-07T17:20:08.590Z,99.90
2018-11-07T17:22:39.168Z,99.90
2018-11-07T17:25:11.929Z,99.90
2018-11-07T17:27:43.049Z,99.90
2018-11-07T17:30:15.864Z,99.90
2018-11-07T17:32:46.310Z,99.90
2018-11-07T17:35:18.091Z,99.90
2018-11-07T17:37:48.797Z,99.90
2018-11-07T17:40:21.724Z,99.90
2018-11-07T17:42:52.738Z,99.90
2018-11-07T17:45:23.939Z,99.90
2018-11-07T17:47:54.589Z,99.90
2018-11-07T17:50:25.991Z,99.90
2018-11-07T17:52:56.626Z,99.90
2018-11-07T17:55:27.406Z,99.90
2018-11-07T17:57:59.108Z,99.90
2018-11-07T18:00:34.491Z,99.90
2018-11-07T18:03:05.108Z,99.90
2018-11-07T18:05:36.079Z,99.90
2018-11-07T18:08:06.817Z,99.90
2018-11-07T18:10:38.573Z,99.90
2018-11-07T18:13:09.187Z,99.90
2018-11-07T18:15:40.448Z,99.90
2018-11-07T18:18:10.835Z,99.90
2018-11-07T18:20:41.590Z,99.90
2018-11-07T18:23:12.159Z,99.90
2018-11-07T18:25:42.817Z,99.90
2018-11-07T18:28:14.293Z,99.90
2018-11-07T18:30:44.839Z,99.90
2018-11-07T18:33:15.470Z,99.90
2018-11-07T18:35:45.988Z,99.90
2018-11-07T18:38:16.577Z,99.90
2018-11-07T18:40:46.997Z,99.90
2018-11-07T18:43:17.910Z,99.90
2018-11-07T18:45:48.131Z,99.90
2018-11-07T18:48:22.194Z,99.90
2018-11-07T18:50:53.756Z,99.90
2018-11-07T18:53:24.395Z,99.90
2018-11-07T18:55:54.973Z,99.90
2018-11-07T18:58:25.414Z,99.90
2018-11-07T19:00:55.858Z,99.90
2018-11-07T19:03:26.713Z,99.90
2018-11-07T19:05:57.283Z,99.90
2018-11-07T19:08:27.769Z,99.90
2018-11-07T19:10:58.106Z,99.90
2018-11-07T19:13:28.737Z,99.90
2018-11-07T19:15:59.414Z,99.90
2018-11-07T19:18:29.973Z,99.90
2018-11-07T19:21:00.348Z,99.90
2018-11-07T19:23:30.992Z,99.90
2018-11-07T19:26:01.455Z,99.90
2018-11-07T19:28:31.935Z,99.90
2018-11-07T19:31:02.428Z,99.90
2018-11-07T19:33:32.880Z,99.90
2018-11-07T19:36:03.344Z,99.90
2018-11-07T19:38:33.809Z,99.90
2018-11-07T19:41:04.195Z,99.90
2018-11-07T19:43:34.691Z,99.90
2018-11-07T19:46:05.215Z,99.90
2018-11-07T19:48:36.122Z,99.90
2018-11-07T19:51:07.044Z,99.90
2018-11-07T19:53:37.482Z,99.90
2018-11-07T19:56:08.194Z,99.90
2018-11-07T19:58:38.945Z,99.90
2018-11-07T20:01:09.580Z,99.90
2018-11-07T20:03:40.153Z,99.90
2018-11-07T20:06:10.840Z,99.90
2018-11-07T20:08:41.355Z,99.90
2018-11-07T20:11:11.869Z,99.90
2018-11-07T20:13:42.426Z,99.90
2018-11-07T20:16:13.010Z,99.90
2018-11-07T20:18:42.735Z,99.90
2018-11-07T20:21:12.901Z,99.90
2018-11-07T20:23:43.023Z,99.90
2018-11-07T20:26:13.131Z,99.90
2018-11-07T20:28:43.255Z,99.90
2018-11-07T20:31:13.393Z,99.90
2018-11-07T20:33:43.535Z,99.90
2018-11-07T20:36:13.760Z,99.90
2018-11-07T20:38:43.732Z,99.90
2018-11-07T20:41:13.815Z,99.90
2018-11-07T20:43:43.801Z,99.90
2018-11-07T20:46:13.802Z,99.90
2018-11-07T20:48:44.079Z,99.90
2018-11-07T20:51:14.154Z,99.90
2018-11-07T20:53:44.213Z,99.90
2018-11-07T20:56:14.305Z,99.90
2018-11-07T20:58:44.389Z,99.90
2018-11-07T21:01:14.476Z,99.90
2018-11-07T21:03:44.770Z,99.90
2018-11-07T21:06:15.016Z,99.90
2018-11-07T21:08:45.108Z,99.90
2018-11-07T21:11:15.109Z,99.90
2018-11-07T21:13:45.141Z,99.90
2018-11-07T21:16:15.106Z,99.90
2018-11-07T21:18:45.232Z,99.90
2018-11-07T21:21:15.264Z,99.90
2018-11-07T21:23:45.642Z,99.90
2018-11-07T21:26:15.847Z,99.90
2018-11-07T21:28:45.842Z,99.90
2018-11-07T21:31:16.080Z,99.90
2018-11-07T21:33:46.196Z,99.90
2018-11-07T21:36:16.149Z,99.90
2018-11-07T21:38:46.241Z,99.90
2018-11-07T21:41:16.319Z,99.90
2018-11-07T21:43:47.506Z,99.90
2018-11-07T21:46:17.544Z,99.90
2018-11-07T21:48:47.572Z,99.90
2018-11-07T21:51:17.527Z,99.90
2018-11-07T21:53:47.609Z,99.90
2018-11-07T21:56:17.598Z,99.90
2018-11-07T21:58:47.797Z,99.90
2018-11-07T22:01:17.892Z,99.90
2018-11-07T22:03:48.963Z,99.90
2018-11-07T22:06:19.021Z,99.90
2018-11-07T22:08:49.043Z,99.90
2018-11-07T22:11:19.135Z,99.90
2018-11-07T22:13:50.187Z,99.90
2018-11-07T22:16:20.253Z,99.90
2018-11-07T22:18:50.235Z,99.90
2018-11-07T22:21:20.331Z,99.90
2018-11-07T22:23:50.395Z,99.90
2018-11-07T22:26:20.453Z,99.90
2018-11-07T22:28:51.590Z,99.90
2018-11-07T22:31:21.649Z,99.90
2018-11-07T22:33:51.765Z,99.90
2018-11-07T22:36:21.788Z,99.90
2018-11-07T22:38:51.713Z,99.90
2018-11-07T22:41:21.665Z,99.90
2018-11-07T22:43:51.737Z,99.90
2018-11-07T22:46:21.838Z,99.90
2018-11-07T22:48:51.514Z,99.90
2018-11-07T22:51:21.540Z,99.90
2018-11-07T22:53:51.543Z,99.90
2018-11-07T22:56:21.605Z,99.90
2018-11-07T22:58:51.616Z,99.90
2018-11-07T23:01:23.445Z,99.90
2018-11-07T23:03:55.521Z,99.90
2018-11-07T23:06:25.490Z,99.90
2018-11-07T23:08:55.471Z,99.90
2018-11-07T23:11:25.386Z,99.90
2018-11-07T23:13:55.450Z,99.90
2018-11-07T23:16:25.417Z,99.90
2018-11-07T23:18:55.487Z,99.90
2018-11-07T23:21:25.470Z,99.90
2018-11-07T23:23:55.462Z,99.90
2018-11-07T23:26:25.387Z,99.90
2018-11-07T23:28:55.364Z,99.90
2018-11-07T23:31:25.393Z,99.90
2018-11-07T23:33:55.436Z,99.90
2018-11-07T23:36:25.406Z,99.90
2018-11-07T23:38:55.414Z,99.90
2018-11-07T23:41:25.588Z,99.90
2018-11-07T23:43:55.607Z,99.90
2018-11-07T23:46:25.594Z,99.90
2018-11-07T23:48:55.658Z,99.90
2018-11-07T23:51:25.639Z,99.90
2018-11-07T23:53:55.699Z,99.90
2018-11-07T23:56:25.748Z,99.90
2018-11-07T23:58:55.740Z,99.90
